Time;durP1;ratioP1;P1;durP2;ratioP2;P2;SDS_P1;SDS_P2;PMS_P1;PMS_P2;Temp;Humidity;BMP_temperature;BMP_pressure;BME280_temperature;BME280_humidity;BME280_pressure;Samples;Min_cycle;Max_cycle;Signal;HPM_P1;HPM_P2
2022/05/30 00:01:44;;;;;;;0.00;0.00;;;7.60;99.90;;;;;;5002122;28;20453;-89
2022/05/30 00:04:10;;;;;;;0.10;0.10;;;6.90;99.90;;;;;;5020203;28;20479;-90
2022/05/30 00:06:36;;;;;;;0.10;0.10;;;7.00;99.90;;;;;;5052626;28;20048;-90
2022/05/30 00:09:08;;;;;;;0.10;0.10;;;8.00;99.90;;;;;;5053099;28;20040;-90
2022/05/30 00:11:37;;;;;;;0.10;0.10;;;7.60;99.90;;;;;;5027851;28;20043;-90
2022/05/30 00:14:06;;;;;;;0.10;0.10;;;7.60;99.90;;;;;;5040009;28;20051;-90
2022/05/30 00:16:33;;;;;;;0.00;0.00;;;7.20;99.90;;;;;;5023431;28;20066;-90
2022/05/30 00:18:59;;;;;;;0.10;0.10;;;7.30;99.90;;;;;;5012318;28;20040;-88
2022/05/30 00:21:25;;;;;;;0.10;0.10;;;7.40;99.90;;;;;;5056611;28;20056;-87
2022/05/30 00:23:56;;;;;;;0.00;0.00;;;8.20;99.90;;;;;;5006647;28;20051;-88
2022/05/30 00:26:22;;;;;;;0.10;0.10;;;7.90;99.90;;;;;;5038674;28;20037;-87
2022/05/30 00:28:48;;;;;;;0.10;0.10;;;7.60;99.90;;;;;;5039752;28;20124;-87
2022/05/30 00:31:16;;;;;;;0.05;0.05;;;7.70;99.90;;;;;;5055818;28;20119;-87
2022/05/30 00:33:43;;;;;;;0.00;0.00;;;7.70;99.90;;;;;;5055977;28;20049;-87
2022/05/30 00:36:10;;;;;;;0.20;0.20;;;7.80;99.90;;;;;;5055848;28;20036;-93
2022/05/30 00:38:36;;;;;;;0.10;0.10;;;7.80;99.90;;;;;;5039293;28;20096;-94
2022/05/30 00:41:02;;;;;;;0.15;0.08;;;8.20;99.90;;;;;;5039608;28;20040;-93
2022/05/30 00:43:34;;;;;;;0.17;0.17;;;8.10;99.90;;;;;;5039688;28;20051;-93
2022/05/30 00:46:06;;;;;;;0.00;0.00;;;7.80;99.90;;;;;;5055784;28;20072;-93
2022/05/30 00:48:36;;;;;;;0.10;0.10;;;8.20;99.90;;;;;;5055727;28;20043;-92
2022/05/30 00:51:07;;;;;;;0.00;0.00;;;8.10;99.90;;;;;;5055822;28;20497;-92
2022/05/30 00:53:34;;;;;;;0.00;0.00;;;8.20;99.90;;;;;;5039468;28;20079;-92
2022/05/30 00:56:02;;;;;;;0.10;0.10;;;7.70;99.90;;;;;;5055909;28;20390;-92
2022/05/30 00:58:31;;;;;;;0.20;0.20;;;7.70;99.90;;;;;;5055564;28;20040;-92
2022/05/30 01:00:58;;;;;;;0.00;0.00;;;7.70;99.90;;;;;;5037616;28;20037;-87
2022/05/30 01:08:54;;;;;;;0.30;0.30;;;7.50;99.90;;;;;;5039504;28;20058;-87
2022/05/30 01:11:20;;;;;;;0.00;0.00;;;7.40;99.90;;;;;;5053853;28;20493;-86
2022/05/30 01:13:45;;;;;;;0.10;0.10;;;7.40;99.90;;;;;;5038940;28;20044;-87
2022/05/30 01:16:11;;;;;;;0.05;0.05;;;8.00;99.90;;;;;;5038894;28;20132;-87
2022/05/30 01:19:01;;;;;;;0.00;0.00;;;7.20;99.90;;;;;;5055416;28;20127;-87
2022/05/30 01:22:06;;;;;;;0.00;0.00;;;7.10;99.90;;;;;;5039990;28;20037;-87
2022/05/30 01:24:50;;;;;;;0.10;0.10;;;7.00;99.90;;;;;;5044171;28;20063;-88
2022/05/30 01:27:38;;;;;;;0.00;0.00;;;6.80;99.90;;;;;;5041478;28;20062;-87
2022/05/30 01:30:07;;;;;;;0.10;0.10;;;6.60;99.90;;;;;;5042395;28;20040;-88
2022/05/30 01:32:33;;;;;;;0.00;0.00;;;6.50;99.90;;;;;;5056838;28;20066;-87
2022/05/30 01:34:59;;;;;;;0.10;0.10;;;6.40;99.90;;;;;;5042252;28;20053;-87
2022/05/30 01:37:25;;;;;;;0.05;0.05;;;7.60;99.90;;;;;;5026672;28;20044;-91
2022/05/30 01:39:51;;;;;;;0.00;0.00;;;6.40;99.90;;;;;;5023117;28;20041;-91
2022/05/30 01:42:17;;;;;;;0.00;0.00;;;6.90;99.90;;;;;;5040911;28;20432;-87
2022/05/30 01:44:43;;;;;;;0.00;0.00;;;6.30;99.90;;;;;;5026140;28;20076;-87
2022/05/30 01:47:09;;;;;;;0.00;0.00;;;6.20;99.90;;;;;;5042764;28;20377;-88
2022/05/30 01:49:34;;;;;;;0.00;0.00;;;6.60;99.90;;;;;;5042631;28;20115;-88
2022/05/30 01:52:00;;;;;;;0.10;0.10;;;6.90;99.90;;;;;;5037072;28;20493;-88
2022/05/30 01:54:26;;;;;;;0.10;0.10;;;6.10;99.90;;;;;;5040284;28;20071;-88
2022/05/30 01:56:51;;;;;;;0.00;0.00;;;6.00;99.90;;;;;;5062721;28;20062;-88
2022/05/30 01:59:17;;;;;;;0.00;0.00;;;5.90;99.90;;;;;;5053289;28;20093;-87
2022/05/30 02:01:45;;;;;;;0.00;0.00;;;5.90;99.90;;;;;;5043273;28;20040;-87
2022/05/30 02:04:12;;;;;;;0.00;0.00;;;6.50;99.90;;;;;;5058570;28;20893;-87
2022/05/30 02:06:38;;;;;;;0.10;0.10;;;6.20;99.90;;;;;;5042286;28;20047;-87
2022/05/30 02:09:05;;;;;;;0.10;0.10;;;6.80;99.90;;;;;;5059002;28;20033;-87
2022/05/30 02:11:31;;;;;;;0.00;0.00;;;5.80;99.90;;;;;;5042067;28;20045;-87
2022/05/30 02:13:57;;;;;;;0.10;0.10;;;5.80;99.90;;;;;;5022127;28;20037;-87
2022/05/30 02:19:09;;;;;;;0.08;0.08;;;5.80;99.90;;;;;;5047866;28;20406;-88
2022/05/30 02:21:35;;;;;;;0.00;0.00;;;5.80;99.90;;;;;;5058762;28;20044;-88
2022/05/30 02:24:03;;;;;;;0.10;0.10;;;6.10;99.90;;;;;;5040030;28;20052;-87
2022/05/30 02:26:28;;;;;;;0.00;0.00;;;5.90;99.90;;;;;;5041866;28;20119;-88
2022/05/30 02:28:54;;;;;;;0.10;0.10;;;6.60;99.90;;;;;;5024337;28;20174;-87
2022/05/30 02:31:20;;;;;;;0.00;0.00;;;6.00;99.90;;;;;;5024192;28;20040;-88
2022/05/30 02:36:39;;;;;;;0.00;0.00;;;6.30;99.90;;;;;;5038684;28;20398;-90
2022/05/30 02:39:10;;;;;;;0.10;0.10;;;6.80;99.90;;;;;;5007428;28;20040;-90
2022/05/30 02:41:37;;;;;;;0.00;0.00;;;6.70;99.90;;;;;;5021959;28;20502;-91
2022/05/30 02:44:04;;;;;;;0.00;0.00;;;6.80;99.90;;;;;;5045622;28;20036;-91
2022/05/30 02:46:30;;;;;;;0.17;0.17;;;6.80;99.90;;;;;;5058409;28;20037;-91
2022/05/30 02:48:56;;;;;;;0.28;0.28;;;6.90;99.90;;;;;;5057892;28;20045;-92
2022/05/30 02:51:21;;;;;;;0.00;0.00;;;7.00;99.90;;;;;;5041645;28;20048;-92
2022/05/30 02:53:48;;;;;;;0.10;0.10;;;7.00;99.90;;;;;;5055256;28;20049;-93
2022/05/30 02:56:15;;;;;;;0.10;0.10;;;7.10;99.90;;;;;;5038420;28;20048;-88
2022/05/30 02:58:42;;;;;;;0.10;0.10;;;7.80;99.90;;;;;;5021490;28;20049;-87
2022/05/30 03:01:09;;;;;;;0.20;0.20;;;7.10;99.90;;;;;;5037853;28;20055;-87
2022/05/30 03:03:34;;;;;;;0.10;0.10;;;7.10;99.90;;;;;;5021324;28;20048;-87
2022/05/30 03:06:01;;;;;;;0.00;0.00;;;7.20;99.90;;;;;;5019040;28;20060;-87
2022/05/30 03:08:27;;;;;;;0.00;0.00;;;8.40;99.90;;;;;;5058017;28;20040;-86
2022/05/30 03:10:52;;;;;;;0.00;0.00;;;7.20;99.90;;;;;;5025029;28;20382;-86
2022/05/30 03:13:18;;;;;;;0.00;0.00;;;8.30;99.90;;;;;;5054902;28;20040;-86
2022/05/30 03:15:44;;;;;;;0.10;0.10;;;7.70;99.90;;;;;;5013016;28;20044;-87
2022/05/30 03:18:10;;;;;;;0.00;0.00;;;7.50;99.90;;;;;;5057838;28;20033;-86
2022/05/30 03:20:36;;;;;;;0.00;0.00;;;7.70;99.90;;;;;;5074311;28;20505;-87
2022/05/30 03:23:02;;;;;;;0.10;0.10;;;7.30;99.90;;;;;;5040721;28;20379;-87
2022/05/30 03:25:27;;;;;;;0.28;0.22;;;7.30;99.90;;;;;;5055973;28;20052;-87
2022/05/30 03:27:55;;;;;;;0.00;0.00;;;7.20;99.90;;;;;;5022009;28;20043;-87
2022/05/30 03:30:22;;;;;;;0.10;0.10;;;7.10;99.90;;;;;;5055228;28;20521;-87
2022/05/30 03:32:48;;;;;;;0.00;0.00;;;7.00;99.90;;;;;;5030551;28;20033;-87
2022/05/30 03:35:15;;;;;;;0.10;0.10;;;7.80;99.90;;;;;;5054031;28;20075;-87
2022/05/30 03:37:42;;;;;;;0.30;0.30;;;7.90;99.90;;;;;;5052455;28;20119;-87
2022/05/30 03:40:10;;;;;;;0.10;0.10;;;6.80;99.90;;;;;;5024092;28;20486;-87
2022/05/30 03:42:35;;;;;;;0.10;0.10;;;6.80;99.90;;;;;;5040035;28;20040;-88
2022/05/30 03:45:02;;;;;;;0.00;0.00;;;6.80;99.90;;;;;;5008896;28;20036;-87
2022/05/30 03:47:27;;;;;;;0.10;0.10;;;6.90;99.90;;;;;;5039558;28;20505;-87
2022/05/30 03:50:00;;;;;;;0.00;0.00;;;7.70;99.90;;;;;;5036777;28;20037;-87
2022/05/30 03:52:26;;;;;;;0.00;0.00;;;7.30;99.90;;;;;;5030010;28;20042;-88
2022/05/30 03:54:52;;;;;;;0.10;0.10;;;6.90;99.90;;;;;;5057109;28;20194;-87
2022/05/30 03:57:18;;;;;;;0.20;0.20;;;7.00;99.90;;;;;;5042943;28;20067;-87
2022/05/30 03:59:44;;;;;;;0.10;0.10;;;7.10;99.90;;;;;;5036725;28;20036;-88
2022/05/30 04:02:10;;;;;;;0.10;0.10;;;7.00;99.90;;;;;;5004036;28;20098;-88
2022/05/30 04:04:36;;;;;;;0.10;0.10;;;7.20;99.90;;;;;;5003619;28;20082;-88
2022/05/30 04:07:02;;;;;;;0.00;0.00;;;7.10;99.90;;;;;;5035484;28;20490;-88
2022/05/30 04:09:28;;;;;;;0.00;0.00;;;7.10;99.90;;;;;;5023582;28;20044;-87
2022/05/30 04:11:54;;;;;;;0.00;0.00;;;7.50;99.90;;;;;;5039422;28;20037;-88
2022/05/30 04:14:20;;;;;;;0.00;0.00;;;7.30;99.90;;;;;;5050782;28;20453;-87
2022/05/30 04:16:45;;;;;;;0.17;0.17;;;8.50;99.90;;;;;;5039814;28;20040;-87
2022/05/30 04:19:11;;;;;;;0.00;0.00;;;7.60;99.90;;;;;;5014134;28;20052;-87
2022/05/30 04:21:37;;;;;;;0.00;0.00;;;8.90;99.90;;;;;;5036398;28;20124;-86
2022/05/30 04:24:03;;;;;;;0.10;0.10;;;7.80;99.90;;;;;;5052937;28;20127;-87
2022/05/30 04:26:29;;;;;;;0.10;0.10;;;7.80;99.90;;;;;;5056414;28;20097;-87
2022/05/30 04:28:55;;;;;;;0.00;0.00;;;7.90;99.90;;;;;;5035491;28;20056;-87
2022/05/30 04:31:20;;;;;;;0.38;0.38;;;8.20;99.90;;;;;;5003494;28;20079;-88
2022/05/30 04:33:46;;;;;;;0.00;0.00;;;8.00;99.90;;;;;;5020889;28;20041;-88
2022/05/30 04:36:14;;;;;;;0.17;0.17;;;8.10;99.90;;;;;;5006965;28;20139;-88
2022/05/30 04:38:39;;;;;;;0.20;0.20;;;8.20;99.90;;;;;;5056059;28;20044;-88
2022/05/30 04:41:05;;;;;;;0.00;0.00;;;8.30;99.90;;;;;;5006356;28;20041;-88
2022/05/30 04:43:31;;;;;;;0.00;0.00;;;8.30;99.90;;;;;;5075588;28;20048;-88
2022/05/30 04:46:06;;;;;;;0.00;0.00;;;8.40;99.90;;;;;;5042688;28;20036;-88
2022/05/30 04:48:31;;;;;;;0.05;0.05;;;8.50;99.90;;;;;;5076125;28;20390;-88
2022/05/30 04:50:57;;;;;;;0.00;0.00;;;8.80;99.90;;;;;;5044877;28;20037;-88
2022/05/30 04:53:23;;;;;;;0.20;0.20;;;8.60;99.90;;;;;;5002446;28;20564;-88
2022/05/30 04:55:49;;;;;;;0.00;0.00;;;8.70;99.90;;;;;;5019623;28;20513;-88
2022/05/30 04:58:14;;;;;;;0.10;0.10;;;8.70;99.90;;;;;;5022835;28;20419;-88
2022/05/30 05:00:40;;;;;;;0.10;0.10;;;8.80;99.90;;;;;;5029258;28;20032;-87
2022/05/30 05:03:06;;;;;;;0.08;0.08;;;9.60;99.90;;;;;;5072888;28;20146;-88
2022/05/30 05:05:32;;;;;;;0.00;0.00;;;8.90;99.90;;;;;;5055407;28;20059;-87
2022/05/30 05:08:25;;;;;;;0.00;0.00;;;9.50;99.90;;;;;;5019872;28;20819;-88
2022/05/30 05:11:19;;;;;;;0.10;0.10;;;9.20;99.90;;;;;;5054462;28;20111;-88
2022/05/30 05:13:45;;;;;;;0.10;0.10;;;9.30;99.90;;;;;;5068768;28;20048;-88
2022/05/30 05:16:11;;;;;;;0.08;0.08;;;9.40;99.90;;;;;;5018934;28;20043;-88
2022/05/30 05:21:05;;;;;;;0.00;0.00;;;9.60;99.90;;;;;;5010937;28;20049;-87
2022/05/30 05:23:32;;;;;;;0.10;0.10;;;9.90;99.90;;;;;;5011774;28;20463;-88
2022/05/30 05:25:57;;;;;;;0.00;0.00;;;10.20;99.90;;;;;;4963908;28;20038;-88
2022/05/30 05:28:23;;;;;;;0.00;0.00;;;10.80;99.90;;;;;;4963981;28;20045;-88
2022/05/30 05:30:49;;;;;;;0.00;0.00;;;11.00;99.90;;;;;;4963950;28;20041;-88
2022/05/30 05:33:17;;;;;;;0.00;0.00;;;11.30;99.90;;;;;;4963945;28;20444;-88
2022/05/30 05:35:45;;;;;;;0.00;0.00;;;12.40;99.90;;;;;;5004528;28;20081;-88
2022/05/30 05:38:11;;;;;;;0.00;0.00;;;12.10;99.90;;;;;;4979193;28;20057;-88
2022/05/30 05:40:41;;;;;;;0.00;0.00;;;12.70;99.90;;;;;;4963866;28;20038;-88
2022/05/30 05:43:08;;;;;;;0.10;0.10;;;13.10;99.90;;;;;;4980314;28;20053;-88
2022/05/30 05:45:38;;;;;;;0.00;0.00;;;13.20;99.90;;;;;;5012304;28;20038;-89
2022/05/30 05:48:04;;;;;;;0.00;0.00;;;13.50;99.90;;;;;;4995760;28;20551;-88
2022/05/30 05:50:30;;;;;;;0.00;0.00;;;13.60;99.90;;;;;;4995719;28;20128;-88
2022/05/30 05:52:55;;;;;;;1.00;0.45;;;13.70;99.90;;;;;;4995887;28;20065;-88
2022/05/30 05:55:22;;;;;;;0.00;0.00;;;13.80;99.90;;;;;;5007590;28;20091;-88
2022/05/30 05:57:48;;;;;;;0.03;0.03;;;13.90;99.90;;;;;;4995361;28;20050;-88
2022/05/30 06:00:15;;;;;;;0.00;0.00;;;13.70;99.90;;;;;;4983687;28;20042;-88
2022/05/30 06:02:41;;;;;;;0.52;0.22;;;13.70;99.90;;;;;;4998804;28;20160;-88
2022/05/30 06:05:09;;;;;;;0.00;0.00;;;13.70;99.90;;;;;;4995187;28;20164;-87
2022/05/30 06:07:38;;;;;;;0.22;0.10;;;14.10;99.90;;;;;;5016009;28;20389;-88
2022/05/30 06:10:05;;;;;;;0.00;0.00;;;14.60;99.90;;;;;;4980138;28;20050;-91
2022/05/30 06:12:34;;;;;;;0.00;0.00;;;14.90;99.90;;;;;;4991921;28;20116;-91
2022/05/30 06:15:00;;;;;;;0.00;0.00;;;14.80;99.90;;;;;;4999005;28;20053;-91
2022/05/30 06:17:25;;;;;;;0.00;0.00;;;14.20;99.90;;;;;;4982662;28;20503;-91
2022/05/30 06:19:51;;;;;;;0.00;0.00;;;14.00;99.90;;;;;;4995211;28;20064;-91
2022/05/30 06:22:17;;;;;;;0.00;0.00;;;14.10;99.90;;;;;;4980139;28;20046;-91
2022/05/30 06:24:43;;;;;;;0.00;0.00;;;13.90;99.90;;;;;;4995829;28;20042;-91
2022/05/30 06:27:10;;;;;;;0.00;0.00;;;14.10;99.90;;;;;;4976753;28;20058;-88
2022/05/30 06:29:36;;;;;;;0.00;0.00;;;14.40;99.90;;;;;;4967442;28;20109;-87
2022/05/30 06:32:03;;;;;;;0.00;0.00;;;14.50;99.90;;;;;;4979088;28;20034;-87
2022/05/30 06:34:30;;;;;;;0.00;0.00;;;14.20;99.90;;;;;;4995693;28;20047;-87
2022/05/30 06:36:56;;;;;;;0.10;0.10;;;14.40;99.90;;;;;;4995985;28;20050;-88
2022/05/30 06:39:21;;;;;;;0.00;0.00;;;14.30;99.90;;;;;;4979515;28;20041;-87
2022/05/30 06:41:48;;;;;;;0.08;0.08;;;14.10;99.90;;;;;;4979314;28;20064;-86
2022/05/30 06:44:14;;;;;;;0.00;0.00;;;13.90;99.90;;;;;;4979576;28;20488;-94
2022/05/30 06:46:40;;;;;;;0.00;0.00;;;13.50;99.90;;;;;;4963819;28;20042;-93
2022/05/30 06:49:06;;;;;;;0.00;0.00;;;13.30;99.90;;;;;;4979317;28;20163;-93
2022/05/30 06:51:35;;;;;;;0.10;0.10;;;12.60;99.90;;;;;;4978956;28;20034;-93
2022/05/30 06:54:01;;;;;;;0.00;0.00;;;12.70;99.90;;;;;;4979746;28;20051;-93
2022/05/30 06:56:29;;;;;;;0.03;0.03;;;12.70;99.90;;;;;;4975971;28;20082;-93
2022/05/30 06:58:56;;;;;;;0.00;0.00;;;12.60;99.90;;;;;;4976096;28;20054;-95
2022/05/30 07:01:29;;;;;;;0.57;0.30;;;12.50;99.90;;;;;;4964290;28;20128;-94
2022/05/30 07:03:55;;;;;;;0.00;0.00;;;12.40;99.90;;;;;;4995592;28;20576;-95
2022/05/30 07:06:34;;;;;;;0.00;0.00;;;12.40;99.90;;;;;;4979348;28;20038;-94
2022/05/30 07:09:04;;;;;;;0.00;0.00;;;12.50;99.90;;;;;;4979293;28;20046;-95
2022/05/30 07:11:30;;;;;;;0.00;0.00;;;12.60;99.90;;;;;;4994813;28;20048;-86
2022/05/30 07:13:56;;;;;;;0.00;0.00;;;12.70;99.90;;;;;;4963835;28;20125;-87
2022/05/30 07:16:24;;;;;;;0.10;0.10;;;12.60;99.90;;;;;;4979828;28;20380;-87
2022/05/30 07:18:49;;;;;;;0.00;0.00;;;12.70;99.90;;;;;;4995486;28;20273;-88
2022/05/30 07:21:16;;;;;;;0.00;0.00;;;13.30;99.90;;;;;;4982024;28;20132;-87
2022/05/30 07:23:42;;;;;;;0.00;0.00;;;14.80;99.90;;;;;;4998141;28;20456;-87
2022/05/30 07:26:12;;;;;;;0.43;0.17;;;16.50;99.90;;;;;;4981622;28;20124;-87
2022/05/30 07:28:38;;;;;;;0.00;0.00;;;17.20;99.90;;;;;;4981842;28;20469;-86
2022/05/30 07:31:05;;;;;;;0.00;0.00;;;18.10;98.40;;;;;;4981794;28;20068;-87
2022/05/30 07:33:33;;;;;;;0.00;0.00;;;18.00;98.60;;;;;;4998890;28;20048;-94
2022/05/30 07:35:58;;;;;;;0.00;0.00;;;18.00;99.30;;;;;;4994577;28;20069;-94
2022/05/30 07:38:24;;;;;;;0.03;0.03;;;18.60;97.10;;;;;;4997924;28;20042;-94
2022/05/30 07:40:50;;;;;;;0.00;0.00;;;18.40;98.20;;;;;;4997702;28;20106;-94
2022/05/30 07:43:15;;;;;;;0.00;0.00;;;18.30;98.20;;;;;;4996011;28;20395;-94
2022/05/30 07:45:41;;;;;;;0.20;0.20;;;18.80;99.50;;;;;;4965223;28;20072;-93
2022/05/30 07:48:07;;;;;;;0.00;0.00;;;18.20;95.90;;;;;;4978379;28;20033;-94
2022/05/30 07:50:34;;;;;;;0.00;0.00;;;18.40;96.60;;;;;;4965019;28;20038;-88
2022/05/30 07:53:01;;;;;;;0.10;0.10;;;18.20;97.40;;;;;;4994401;28;20121;-89
2022/05/30 07:55:29;;;;;;;0.55;0.43;;;18.00;98.70;;;;;;5013717;28;20042;-88
2022/05/30 07:57:55;;;;;;;0.00;0.00;;;17.50;99.10;;;;;;4981355;28;20048;-88
2022/05/30 08:00:24;;;;;;;0.00;0.00;;;16.30;98.30;;;;;;4991847;28;20048;-88
2022/05/30 08:02:51;;;;;;;0.10;0.10;;;15.40;99.00;;;;;;4995262;28;20042;-88
2022/05/30 08:05:18;;;;;;;0.00;0.00;;;15.10;99.60;;;;;;4993437;28;20526;-88
2022/05/30 08:07:45;;;;;;;0.08;0.08;;;14.90;99.90;;;;;;5013825;28;20038;-93
2022/05/30 08:10:13;;;;;;;0.15;0.15;;;14.30;99.90;;;;;;4996433;28;20049;-93
2022/05/30 08:12:39;;;;;;;0.00;0.00;;;14.20;99.90;;;;;;4981012;28;20066;-93
2022/05/30 08:15:06;;;;;;;0.00;0.00;;;14.20;99.90;;;;;;4964768;28;20136;-94
2022/05/30 08:17:32;;;;;;;0.00;0.00;;;13.90;99.90;;;;;;4980959;28;20042;-94
2022/05/30 08:19:59;;;;;;;0.00;0.00;;;14.00;99.90;;;;;;4980651;28;20054;-93
2022/05/30 08:22:25;;;;;;;0.00;0.00;;;14.00;99.90;;;;;;4980942;28;20045;-93
2022/05/30 08:24:52;;;;;;;8.85;0.82;;;14.00;99.90;;;;;;4964504;28;20041;-93
2022/05/30 08:27:19;;;;;;;0.00;0.00;;;14.20;99.90;;;;;;4967200;28;20069;-93
2022/05/30 08:29:45;;;;;;;0.00;0.00;;;14.40;99.90;;;;;;4973258;28;20045;-94
2022/05/30 08:32:12;;;;;;;0.00;0.00;;;14.50;99.90;;;;;;4993838;28;20045;-93
2022/05/30 08:34:40;;;;;;;0.00;0.00;;;14.70;99.90;;;;;;4984978;28;20074;-93
2022/05/30 08:37:07;;;;;;;0.00;0.00;;;15.20;99.90;;;;;;4983437;28;20045;-92
2022/05/30 08:42:23;;;;;;;0.15;0.10;;;16.00;97.70;;;;;;5000034;28;20053;-91
2022/05/30 08:44:49;;;;;;;0.00;0.00;;;16.60;98.50;;;;;;4979563;28;20042;-90
2022/05/30 08:47:41;;;;;;;0.00;0.00;;;16.80;96.90;;;;;;4984042;28;20088;-91
2022/05/30 08:50:35;;;;;;;0.00;0.00;;;17.20;96.80;;;;;;4992315;28;20133;-91
2022/05/30 08:53:31;;;;;;;0.00;0.00;;;17.60;97.00;;;;;;4995440;28;20049;-91
2022/05/30 08:56:14;;;;;;;0.00;0.00;;;17.30;95.80;;;;;;4979932;28;20053;-90
2022/05/30 08:58:56;;;;;;;0.03;0.03;;;17.30;95.60;;;;;;4992598;28;20077;-88
2022/05/30 09:01:34;;;;;;;0.00;0.00;;;17.20;97.70;;;;;;4995636;28;20033;-89
2022/05/30 09:04:27;;;;;;;0.00;0.00;;;17.00;97.70;;;;;;4978111;28;20298;-88
2022/05/30 09:07:01;;;;;;;0.10;0.10;;;16.60;97.70;;;;;;4993530;28;20038;-89
2022/05/30 09:09:58;;;;;;;0.00;0.00;;;16.20;99.20;;;;;;4970647;28;20037;-88
2022/05/30 09:12:33;;;;;;;0.00;0.00;;;16.10;99.90;;;;;;4962561;28;20563;-89
2022/05/30 09:15:11;;;;;;;0.00;0.00;;;16.20;99.90;;;;;;5008756;28;20048;-87
2022/05/30 09:17:49;;;;;;;0.10;0.10;;;16.00;99.90;;;;;;5002622;28;20049;-88
2022/05/30 09:20:18;;;;;;;0.00;0.00;;;15.90;99.50;;;;;;4996185;28;20644;-88
2022/05/30 09:22:44;;;;;;;0.00;0.00;;;15.90;99.90;;;;;;4995318;28;20038;-88
2022/05/30 09:28:03;;;;;;;0.00;0.00;;;16.30;99.60;;;;;;4995258;28;20472;-90
2022/05/30 09:30:45;;;;;;;0.00;0.00;;;16.20;97.60;;;;;;4969588;28;20037;-93
2022/05/30 09:33:20;;;;;;;0.00;0.00;;;16.20;98.80;;;;;;4993038;28;20044;-93
2022/05/30 09:35:46;;;;;;;3.45;1.05;;;16.30;98.20;;;;;;4996084;28;20045;-93
2022/05/30 09:38:21;;;;;;;0.45;0.45;;;15.50;98.60;;;;;;4969143;28;20419;-95
2022/05/30 09:40:52;;;;;;;0.00;0.00;;;14.70;99.90;;;;;;4998664;28;20073;-95
2022/05/30 09:43:41;;;;;;;0.00;0.00;;;14.40;99.90;;;;;;4993213;28;20045;-95
2022/05/30 09:46:34;;;;;;;0.00;0.00;;;13.90;99.90;;;;;;4988747;28;20550;-94
2022/05/30 09:49:06;;;;;;;0.00;0.00;;;13.50;99.90;;;;;;4999186;28;20049;-94
2022/05/30 09:51:35;;;;;;;0.73;0.40;;;13.20;99.90;;;;;;4999471;28;20125;-93
2022/05/30 09:54:02;;;;;;;0.00;0.00;;;12.90;99.90;;;;;;4999868;28;20046;-94
2022/05/30 09:56:33;;;;;;;0.00;0.00;;;12.70;99.90;;;;;;4999758;28;20042;-94
2022/05/30 09:59:06;;;;;;;0.10;0.10;;;12.60;99.90;;;;;;5003006;28;20048;-94
2022/05/30 10:01:35;;;;;;;0.00;0.00;;;12.70;99.90;;;;;;4997681;28;20488;-94
2022/05/30 10:04:29;;;;;;;0.00;0.00;;;12.80;99.90;;;;;;5011689;28;20414;-86
2022/05/30 10:07:13;;;;;;;0.00;0.00;;;12.90;99.90;;;;;;5012492;28;20044;-87
2022/05/30 10:10:00;;;;;;;0.10;0.10;;;13.10;99.90;;;;;;4999075;28;20042;-87
2022/05/30 10:12:30;;;;;;;0.00;0.00;;;13.10;99.90;;;;;;4985008;28;20046;-87
2022/05/30 10:14:56;;;;;;;0.05;0.05;;;13.20;99.90;;;;;;4999646;28;20408;-87
2022/05/30 10:17:29;;;;;;;0.00;0.00;;;13.30;99.90;;;;;;4999066;28;20041;-87
2022/05/30 10:19:55;;;;;;;0.17;0.17;;;13.40;99.90;;;;;;4998988;28;20061;-94
2022/05/30 10:28:47;;;;;;;0.00;0.00;;;14.20;99.90;;;;;;4979828;28;20038;-95
2022/05/30 10:31:22;;;;;;;0.03;0.03;;;14.40;99.90;;;;;;4979780;28;20052;-91
2022/05/30 10:33:57;;;;;;;0.10;0.10;;;14.70;99.90;;;;;;4979944;28;20073;-91
2022/05/30 10:37:01;;;;;;;0.20;0.20;;;15.10;99.90;;;;;;5027567;28;20408;-92
2022/05/30 10:39:35;;;;;;;0.10;0.10;;;15.50;99.90;;;;;;4947763;28;20203;-92
2022/05/30 10:42:08;;;;;;;0.00;0.00;;;15.80;99.90;;;;;;4999151;28;20046;-92
2022/05/30 10:44:43;;;;;;;0.50;0.50;;;16.00;99.90;;;;;;5015364;28;20046;-91
2022/05/30 10:47:18;;;;;;;0.00;0.00;;;16.10;99.90;;;;;;4988260;28;20034;-92
2022/05/30 10:49:50;;;;;;;0.03;0.03;;;16.30;99.90;;;;;;4982658;28;20121;-92
2022/05/30 10:52:39;;;;;;;0.00;0.00;;;16.70;99.90;;;;;;4981963;28;20042;-91
2022/05/30 10:55:10;;;;;;;0.05;0.05;;;17.40;99.90;;;;;;4998931;28;20184;-92
2022/05/30 10:57:41;;;;;;;0.10;0.10;;;18.40;98.10;;;;;;4982596;28;20503;-91
2022/05/30 11:00:21;;;;;;;0.00;0.00;;;19.10;98.50;;;;;;4998193;28;20045;-91
2022/05/30 11:03:00;;;;;;;0.00;0.00;;;19.70;95.80;;;;;;4982388;28;20121;-92
2022/05/30 11:05:30;;;;;;;0.00;0.00;;;19.70;94.50;;;;;;4982269;28;20046;-92
2022/05/30 11:08:03;;;;;;;0.00;0.00;;;18.90;96.00;;;;;;4998414;28;20046;-91
2022/05/30 11:10:47;;;;;;;0.00;0.00;;;17.90;94.90;;;;;;4997433;28;20038;-92
2022/05/30 11:13:27;;;;;;;0.17;0.17;;;17.80;95.00;;;;;;4997834;28;20038;-91
2022/05/30 11:16:00;;;;;;;0.00;0.00;;;17.30;96.10;;;;;;4998305;28;20046;-91
2022/05/30 11:18:53;;;;;;;0.00;0.00;;;17.40;96.20;;;;;;4997933;28;20042;-91
2022/05/30 11:21:33;;;;;;;0.10;0.10;;;17.30;98.00;;;;;;4996585;28;20119;-91
2022/05/30 11:24:04;;;;;;;0.68;0.68;;;17.30;99.20;;;;;;5014213;28;20041;-92
2022/05/30 11:26:42;;;;;;;0.10;0.10;;;17.10;97.90;;;;;;4981999;28;20423;-91
2022/05/30 11:29:36;;;;;;;0.10;0.10;;;17.20;98.20;;;;;;4981954;28;20038;-91
2022/05/30 11:32:33;;;;;;;0.00;0.00;;;17.20;99.00;;;;;;4997549;28;20038;-89
2022/05/30 11:35:35;;;;;;;0.20;0.20;;;17.20;96.40;;;;;;4997457;28;20053;-90
2022/05/30 11:38:38;;;;;;;0.00;0.00;;;17.00;96.00;;;;;;4961178;28;20412;-92
2022/05/30 11:41:25;;;;;;;0.00;0.00;;;16.90;96.80;;;;;;4995496;28;20084;-91
2022/05/30 11:44:22;;;;;;;0.10;0.10;;;16.70;96.80;;;;;;5013821;28;20560;-92
2022/05/30 11:46:58;;;;;;;0.10;0.10;;;16.50;98.50;;;;;;4998221;28;20077;-92
2022/05/30 11:49:35;;;;;;;0.10;0.10;;;16.70;99.40;;;;;;4998279;28;20042;-93
2022/05/30 11:52:23;;;;;;;0.00;0.00;;;16.50;99.90;;;;;;4981620;28;20038;-93
2022/05/30 11:55:11;;;;;;;0.00;0.00;;;16.60;99.90;;;;;;4994574;28;20049;-92
2022/05/30 11:57:53;;;;;;;0.00;0.00;;;16.50;99.90;;;;;;4978712;28;20069;-89
2022/05/30 12:00:22;;;;;;;0.90;0.90;;;16.30;99.90;;;;;;4980655;28;20040;-90
2022/05/30 12:03:25;;;;;;;4.65;0.47;;;16.10;99.90;;;;;;4983532;28;20053;-91
2022/05/30 12:06:13;;;;;;;2.17;0.20;;;16.10;99.90;;;;;;5001403;23;20496;-86
2022/05/30 12:08:44;;;;;;;0.00;0.00;;;16.10;98.60;;;;;;5005271;28;20041;-87
2022/05/30 12:11:40;;;;;;;0.20;0.17;;;16.20;96.90;;;;;;5016736;28;20053;-87
2022/05/30 12:14:13;;;;;;;0.10;0.10;;;16.50;97.00;;;;;;5013872;28;20034;-82
2022/05/30 12:17:06;;;;;;;0.00;0.00;;;16.70;98.00;;;;;;5031397;28;20038;-82
2022/05/30 12:25:34;;;;;;;0.00;0.00;;;19.10;95.00;;;;;;5015754;28;20037;-83
2022/05/30 12:28:06;;;;;;;0.00;0.00;;;19.20;93.70;;;;;;4997182;28;20038;-85
2022/05/30 12:30:37;;;;;;;0.00;0.00;;;19.40;93.20;;;;;;4980678;28;20049;-85
2022/05/30 12:33:46;;;;;;;0.20;0.20;;;19.60;92.90;;;;;;4981984;28;20041;-85
2022/05/30 12:36:16;;;;;;;0.00;0.00;;;19.60;90.90;;;;;;4937909;29;20267;-84
2022/05/30 12:38:56;;;;;;;0.45;0.20;;;19.70;91.30;;;;;;4972709;28;20042;-85
2022/05/30 12:41:55;;;;;;;0.00;0.00;;;19.80;92.10;;;;;;5009762;28;20055;-84
2022/05/30 12:44:39;;;;;;;0.00;0.00;;;19.60;91.80;;;;;;4998686;28;20077;-85
2022/05/30 12:47:14;;;;;;;0.00;0.00;;;19.20;92.50;;;;;;4999810;28;20033;-85
2022/05/30 12:49:41;;;;;;;0.00;0.00;;;18.50;92.90;;;;;;4980235;28;20511;-86
2022/05/30 12:52:17;;;;;;;0.00;0.00;;;18.10;94.30;;;;;;4996813;28;20042;-86
2022/05/30 12:55:07;;;;;;;0.10;0.10;;;17.70;95.50;;;;;;4997688;28;20407;-86
2022/05/30 12:57:44;;;;;;;0.00;0.00;;;17.40;94.30;;;;;;4981799;28;20112;-87
2022/05/30 13:00:16;;;;;;;0.10;0.10;;;17.30;94.70;;;;;;5029310;28;20103;-85
2022/05/30 13:02:54;;;;;;;0.10;0.10;;;17.20;95.40;;;;;;4996699;28;20456;-85
2022/05/30 13:05:26;;;;;;;0.00;0.00;;;17.00;96.60;;;;;;4980152;28;20381;-86
2022/05/30 13:07:52;;;;;;;0.10;0.10;;;16.90;96.90;;;;;;4997487;28;20084;-86
2022/05/30 13:10:18;;;;;;;0.00;0.00;;;16.80;97.40;;;;;;4999456;28;20038;-86
2022/05/30 13:12:57;;;;;;;0.00;0.00;;;16.60;98.00;;;;;;4983389;28;20451;-86
2022/05/30 13:15:35;;;;;;;0.10;0.10;;;16.50;98.10;;;;;;5015346;28;20506;-86
2022/05/30 13:18:04;;;;;;;0.10;0.10;;;16.30;99.00;;;;;;4995573;28;20266;-87
2022/05/30 13:20:30;;;;;;;0.00;0.00;;;;;;;;;;4995689;28;20121;-86
2022/05/30 13:23:01;;;;;;;0.10;0.10;;;16.10;99.20;;;;;;5029251;28;20038;-86
2022/05/30 13:25:51;;;;;;;0.00;0.00;;;16.00;99.70;;;;;;4996127;28;20042;-87
2022/05/30 13:28:29;;;;;;;0.00;0.00;;;16.10;99.90;;;;;;4996331;28;20053;-87
2022/05/30 13:30:57;;;;;;;0.00;0.00;;;16.30;99.50;;;;;;5028907;28;20070;-87
2022/05/30 13:33:38;;;;;;;0.00;0.00;;;16.40;99.50;;;;;;4996340;28;20041;-87
2022/05/30 13:36:06;;;;;;;0.00;0.00;;;16.60;99.30;;;;;;5012398;28;20041;-88
2022/05/30 13:38:43;;;;;;;0.00;0.00;;;16.80;98.90;;;;;;4979936;28;20077;-88
2022/05/30 13:41:13;;;;;;;0.00;0.00;;;16.90;99.30;;;;;;4995830;28;20034;-87
2022/05/30 13:43:39;;;;;;;0.00;0.00;;;17.00;98.60;;;;;;5028664;28;20084;-86